createdAt,value
2019-06-26T00:01:05.045Z,34.83
2019-06-26T00:03:33.427Z,34.90
2019-06-26T00:06:01.780Z,38.93
2019-06-26T00:08:30.074Z,39.27
2019-06-26T00:10:58.436Z,41.70
2019-06-26T00:13:27.147Z,40.63
2019-06-26T00:15:55.615Z,37.33
2019-06-26T00:18:23.972Z,41.03
2019-06-26T00:20:52.271Z,38.30
2019-06-26T00:23:20.631Z,38.47
2019-06-26T00:25:49.005Z,36.90
2019-06-26T00:28:17.288Z,36.43
2019-06-26T00:30:45.643Z,36.50
2019-06-26T00:33:13.938Z,34.43
2019-06-26T00:35:42.229Z,32.77
2019-06-26T00:38:10.651Z,28.77
2019-06-26T00:40:39.058Z,32.30
2019-06-26T00:43:07.421Z,26.77
2019-06-26T00:45:35.707Z,30.60
2019-06-26T00:48:04.021Z,30.97
2019-06-26T00:50:32.311Z,30.67
2019-06-26T00:53:00.665Z,30.10
2019-06-26T00:55:29.085Z,30.40
2019-06-26T00:57:57.381Z,29.87
2019-06-26T01:00:37.879Z,30.03
2019-06-26T01:03:06.162Z,28.70
2019-06-26T01:05:34.462Z,27.13
2019-06-26T01:08:02.746Z,33.50
2019-06-26T01:10:31.117Z,30.37
2019-06-26T01:12:59.394Z,34.33
2019-06-26T01:15:27.680Z,34.03
2019-06-26T01:17:55.985Z,36.00
2019-06-26T01:20:24.435Z,34.70
2019-06-26T01:22:52.735Z,35.43
2019-06-26T01:25:21.021Z,38.57
2019-06-26T01:27:49.318Z,34.33
2019-06-26T01:30:17.606Z,36.77
2019-06-26T01:32:45.939Z,35.30
2019-06-26T01:35:14.265Z,31.57
2019-06-26T01:37:42.541Z,36.07
2019-06-26T01:40:10.972Z,36.03
2019-06-26T01:42:39.247Z,33.33
2019-06-26T01:45:07.582Z,33.43
2019-06-26T01:47:35.911Z,32.97
2019-06-26T01:50:05.655Z,31.90
2019-06-26T01:52:33.948Z,31.57
2019-06-26T01:55:02.441Z,29.37
2019-06-26T01:57:31.072Z,29.67
2019-06-26T01:59:59.550Z,31.23
2019-06-26T02:02:27.977Z,32.87
2019-06-26T02:04:56.310Z,36.47
2019-06-26T02:07:24.609Z,31.17
2019-06-26T02:09:52.932Z,32.83
2019-06-26T02:12:21.241Z,32.20
2019-06-26T02:14:49.530Z,29.63
2019-06-26T02:17:17.833Z,30.20
2019-06-26T02:19:46.223Z,28.70
2019-06-26T02:22:14.571Z,28.47
2019-06-26T02:24:43.022Z,28.17
2019-06-26T02:27:11.360Z,29.07
2019-06-26T02:29:39.830Z,27.47
2019-06-26T02:32:08.206Z,31.63
2019-06-26T02:34:36.627Z,31.27
2019-06-26T02:37:04.978Z,31.27
2019-06-26T02:39:33.394Z,34.80
2019-06-26T02:42:01.747Z,31.53
2019-06-26T02:44:50.920Z,30.23
2019-06-26T02:47:17.699Z,30.23
2019-06-26T02:49:30.078Z,31.63
2019-06-26T02:51:58.460Z,34.47
2019-06-26T02:54:26.819Z,31.57
2019-06-26T02:56:55.191Z,30.90
2019-06-26T02:59:23.546Z,31.57
2019-06-26T03:01:51.842Z,35.83
2019-06-26T03:04:20.193Z,36.57
2019-06-26T03:06:48.519Z,34.63
2019-06-26T03:09:16.803Z,35.77
2019-06-26T03:11:45.105Z,34.77
2019-06-26T03:14:13.407Z,35.87
2019-06-26T03:16:42.239Z,32.77
2019-06-26T03:19:10.530Z,36.47
2019-06-26T03:21:38.816Z,34.57
2019-06-26T03:24:07.209Z,32.50
2019-06-26T03:26:35.657Z,29.33
2019-06-26T03:29:04.048Z,27.83
2019-06-26T03:31:32.329Z,32.30
2019-06-26T03:34:00.686Z,29.33
2019-06-26T03:36:29.089Z,28.63
2019-06-26T03:38:57.380Z,30.00
2019-06-26T03:41:25.678Z,27.57
2019-06-26T03:43:53.971Z,31.17
2019-06-26T03:46:22.359Z,32.90
2019-06-26T03:48:50.730Z,27.93
2019-06-26T03:51:19.064Z,30.30
2019-06-26T03:53:47.348Z,30.63
2019-06-26T03:56:16.675Z,31.67
2019-06-26T03:58:45.009Z,33.30
2019-06-26T04:01:13.293Z,34.80
2019-06-26T04:03:41.670Z,37.00
2019-06-26T04:06:10.020Z,39.93
2019-06-26T04:08:38.332Z,38.37
2019-06-26T04:11:06.612Z,37.60
2019-06-26T04:13:34.935Z,37.77
2019-06-26T04:16:03.274Z,32.40
2019-06-26T04:18:31.639Z,30.70
2019-06-26T04:21:11.916Z,27.77
2019-06-26T04:23:40.194Z,32.37
2019-06-26T04:26:08.830Z,31.60
2019-06-26T04:28:37.102Z,32.70
2019-06-26T04:31:05.422Z,31.27
2019-06-26T04:33:33.721Z,29.73
2019-06-26T04:36:02.148Z,27.17
2019-06-26T04:38:30.519Z,27.63
2019-06-26T04:40:58.799Z,28.30
2019-06-26T04:43:27.143Z,30.47
2019-06-26T04:45:58.447Z,29.73
2019-06-26T04:48:25.520Z,27.50
2019-06-26T04:50:53.816Z,24.97
2019-06-26T04:53:22.198Z,27.67
2019-06-26T04:55:50.483Z,27.27
2019-06-26T04:58:18.800Z,26.33
2019-06-26T05:00:47.569Z,22.60
2019-06-26T05:03:15.941Z,23.17
2019-06-26T05:05:44.611Z,22.83
2019-06-26T05:08:12.964Z,22.83
2019-06-26T05:10:41.332Z,21.93
2019-06-26T05:13:09.679Z,24.03
2019-06-26T05:15:37.974Z,22.33
2019-06-26T05:18:06.362Z,22.87
2019-06-26T05:20:34.755Z,21.97
2019-06-26T05:23:03.187Z,23.87
2019-06-26T05:25:31.469Z,21.27
2019-06-26T05:27:59.765Z,23.50
2019-06-26T05:30:28.047Z,21.90
2019-06-26T05:32:56.341Z,19.60
2019-06-26T05:35:24.619Z,22.93
2019-06-26T05:37:52.920Z,22.50
2019-06-26T05:40:21.228Z,19.40
2019-06-26T05:42:49.727Z,21.83
2019-06-26T05:45:18.023Z,18.33
2019-06-26T05:47:46.310Z,19.00
2019-06-26T05:50:14.683Z,20.13
2019-06-26T05:52:43.366Z,21.87
2019-06-26T05:55:11.830Z,21.13
2019-06-26T05:57:41.987Z,22.13
2019-06-26T06:00:10.511Z,21.77
2019-06-26T06:02:38.888Z,24.13
2019-06-26T06:05:08.100Z,22.90
2019-06-26T06:07:37.232Z,23.33
2019-06-26T06:10:05.927Z,24.17
2019-06-26T06:12:34.268Z,24.87
2019-06-26T06:15:03.181Z,25.97
2019-06-26T06:17:31.606Z,25.70
2019-06-26T06:19:59.928Z,23.83
2019-06-26T06:22:28.305Z,24.57
2019-06-26T06:24:56.658Z,23.83
2019-06-26T06:27:25.009Z,23.37
2019-06-26T06:29:53.300Z,23.50
2019-06-26T06:32:21.675Z,23.03
2019-06-26T06:34:50.074Z,21.13
2019-06-26T06:37:18.376Z,21.57
2019-06-26T06:39:46.731Z,22.60
2019-06-26T06:42:15.117Z,23.67
2019-06-26T06:44:43.391Z,23.77
2019-06-26T06:47:11.667Z,24.60
2019-06-26T06:49:40.163Z,23.70
2019-06-26T06:52:08.439Z,24.00
2019-06-26T06:54:36.810Z,23.13
2019-06-26T06:57:05.089Z,23.77
2019-06-26T06:59:33.380Z,24.83
2019-06-26T07:02:01.747Z,27.13
2019-06-26T07:04:30.066Z,24.50
2019-06-26T07:06:58.858Z,24.00
2019-06-26T07:09:27.313Z,23.43
2019-06-26T07:11:55.785Z,24.47
2019-06-26T07:14:24.050Z,21.63
2019-06-26T07:16:52.356Z,22.43
2019-06-26T07:19:20.637Z,22.23
2019-06-26T07:21:48.934Z,21.63
2019-06-26T07:24:17.242Z,20.70
2019-06-26T07:26:45.655Z,20.20
2019-06-26T07:29:14.005Z,21.93
2019-06-26T07:31:42.366Z,21.03
2019-06-26T07:34:10.734Z,18.50
2019-06-26T07:36:39.017Z,19.47
2019-06-26T07:39:07.468Z,19.50
2019-06-26T07:41:36.022Z,16.27
2019-06-26T07:44:04.391Z,15.93
2019-06-26T07:46:32.742Z,17.73
2019-06-26T07:49:01.048Z,17.83
2019-06-26T07:51:29.420Z,18.97
2019-06-26T07:53:57.794Z,20.00
2019-06-26T07:56:26.168Z,20.27
2019-06-26T07:58:54.517Z,20.10
2019-06-26T08:01:22.900Z,18.40
2019-06-26T08:03:51.302Z,18.30
2019-06-26T08:06:19.603Z,18.37
2019-06-26T08:08:47.893Z,20.63
2019-06-26T08:11:16.275Z,17.83
2019-06-26T08:13:44.636Z,19.97
2019-06-26T08:16:12.990Z,18.10
2019-06-26T08:18:41.370Z,18.77
2019-06-26T08:21:12.457Z,18.30
2019-06-26T08:23:39.771Z,18.33
2019-06-26T08:26:08.052Z,18.47
2019-06-26T08:28:36.425Z,18.83
2019-06-26T08:31:04.786Z,19.03
2019-06-26T08:33:33.162Z,19.57
2019-06-26T08:36:01.474Z,20.00
2019-06-26T08:38:29.827Z,18.83
2019-06-26T08:40:58.200Z,18.50
2019-06-26T08:43:26.594Z,18.67
2019-06-26T08:45:54.953Z,17.60
2019-06-26T08:48:39.078Z,18.43
2019-06-26T08:50:53.351Z,17.40
2019-06-26T08:53:21.651Z,18.07
2019-06-26T08:55:49.954Z,16.47
2019-06-26T08:58:18.244Z,17.53
2019-06-26T09:00:46.577Z,16.97
2019-06-26T09:03:14.958Z,17.33
2019-06-26T09:05:47.971Z,15.27
2019-06-26T09:08:13.569Z,15.10
2019-06-26T09:10:44.828Z,17.23
2019-06-26T09:13:11.965Z,16.63
2019-06-26T09:15:40.258Z,16.03
2019-06-26T09:18:08.627Z,17.40
2019-06-26T09:20:40.667Z,19.30
2019-06-26T09:23:09.370Z,17.60
2019-06-26T09:25:37.749Z,18.23
2019-06-26T09:28:06.078Z,17.27
2019-06-26T09:30:34.363Z,17.70
2019-06-26T09:33:02.674Z,19.07
2019-06-26T09:35:32.596Z,18.60
2019-06-26T09:38:00.914Z,18.63
2019-06-26T09:40:31.752Z,16.83
2019-06-26T09:42:59.260Z,17.77
2019-06-26T09:45:27.645Z,17.93
2019-06-26T09:47:55.957Z,16.80
2019-06-26T09:50:24.338Z,16.63
2019-06-26T09:52:52.689Z,15.37
2019-06-26T09:55:21.078Z,16.43
2019-06-26T09:57:49.455Z,15.60
2019-06-26T10:00:20.549Z,16.70
2019-06-26T10:02:48.955Z,18.07
2019-06-26T10:05:17.528Z,18.17
2019-06-26T10:07:45.911Z,16.03
2019-06-26T10:10:14.340Z,15.77
2019-06-26T10:12:42.689Z,17.97
2019-06-26T10:15:10.972Z,16.77
2019-06-26T10:17:39.279Z,15.10
2019-06-26T10:20:08.672Z,13.83
2019-06-26T10:22:37.047Z,14.10
2019-06-26T10:25:05.969Z,14.00
2019-06-26T10:27:34.419Z,12.73
2019-06-26T10:30:02.840Z,14.30
2019-06-26T10:32:31.696Z,14.47
2019-06-26T10:34:59.992Z,15.53
2019-06-26T10:37:28.338Z,15.47
2019-06-26T10:39:56.639Z,14.70
2019-06-26T10:42:24.976Z,14.07
2019-06-26T10:44:53.366Z,14.17
2019-06-26T10:47:21.735Z,13.53
2019-06-26T10:49:50.179Z,16.13
2019-06-26T10:52:18.543Z,17.37
2019-06-26T10:54:46.836Z,16.03
2019-06-26T10:57:15.114Z,16.60
2019-06-26T10:59:43.499Z,15.73
2019-06-26T11:02:11.830Z,15.70
2019-06-26T11:04:40.160Z,14.50
2019-06-26T11:07:08.521Z,15.17
2019-06-26T11:09:36.899Z,14.97
2019-06-26T11:12:09.447Z,16.70
2019-06-26T11:14:37.872Z,17.27
2019-06-26T11:17:06.172Z,16.50
2019-06-26T11:19:43.718Z,17.83
2019-06-26T11:22:04.594Z,17.00
2019-06-26T11:24:32.947Z,15.23
2019-06-26T11:27:01.340Z,15.97
2019-06-26T11:29:29.720Z,16.17
2019-06-26T11:31:58.073Z,17.23
2019-06-26T11:34:26.547Z,15.27
2019-06-26T11:37:03.922Z,15.43
2019-06-26T11:39:25.070Z,14.50
2019-06-26T11:41:53.472Z,16.37
2019-06-26T11:44:21.868Z,17.03
2019-06-26T11:46:50.194Z,17.00
2019-06-26T11:49:18.608Z,16.77
2019-06-26T11:51:52.868Z,16.00
2019-06-26T11:54:27.178Z,15.33
2019-06-26T11:56:55.502Z,15.67
2019-06-26T11:59:27.128Z,18.00
2019-06-26T12:01:55.773Z,16.40
2019-06-26T12:04:24.134Z,16.93
2019-06-26T12:06:52.505Z,17.80
2019-06-26T12:09:23.772Z,19.07
2019-06-26T12:11:52.105Z,18.33
2019-06-26T12:14:20.524Z,19.27
2019-06-26T12:16:48.817Z,18.33
2019-06-26T12:19:19.894Z,19.33
2019-06-26T12:21:47.193Z,18.23
2019-06-26T12:24:15.568Z,19.83
2019-06-26T12:26:43.933Z,19.03
2019-06-26T12:29:12.306Z,18.87
2019-06-26T12:31:40.696Z,18.77
2019-06-26T12:34:09.114Z,17.50
2019-06-26T12:36:37.647Z,18.30
2019-06-26T12:39:07.390Z,16.07
2019-06-26T12:41:35.664Z,15.83
2019-06-26T12:44:04.054Z,15.90
2019-06-26T12:46:32.334Z,16.07
2019-06-26T12:49:00.855Z,17.87
2019-06-26T12:51:29.146Z,15.73
2019-06-26T12:53:58.497Z,16.80
2019-06-26T12:56:27.127Z,16.43
2019-06-26T12:58:58.851Z,16.13
2019-06-26T13:01:25.511Z,14.60
2019-06-26T13:03:54.030Z,15.37
2019-06-26T13:06:22.420Z,16.70
2019-06-26T13:08:50.701Z,17.30
2019-06-26T13:11:19.074Z,15.60
2019-06-26T13:14:01.357Z,15.53
2019-06-26T13:16:17.593Z,15.40
2019-06-26T13:18:45.888Z,15.43
2019-06-26T13:21:14.230Z,15.03
2019-06-26T13:23:42.593Z,14.57
2019-06-26T13:26:10.992Z,13.50
2019-06-26T13:28:39.401Z,14.90
2019-06-26T13:31:07.886Z,14.07
2019-06-26T13:33:36.292Z,14.83
2019-06-26T13:36:04.693Z,14.93
2019-06-26T13:38:33.066Z,15.37
2019-06-26T13:41:01.427Z,14.87
2019-06-26T13:43:29.819Z,13.07
2019-06-26T13:45:58.946Z,14.50
2019-06-26T13:48:27.449Z,13.70
2019-06-26T13:51:08.880Z,13.33
2019-06-26T13:53:27.939Z,12.47
2019-06-26T13:55:56.721Z,15.00
2019-06-26T13:58:25.030Z,13.10
2019-06-26T14:00:53.326Z,12.27
2019-06-26T14:03:21.610Z,13.67
2019-06-26T14:05:49.912Z,13.83
2019-06-26T14:08:18.275Z,12.77
2019-06-26T14:10:46.636Z,13.83
2019-06-26T14:13:14.924Z,13.17
2019-06-26T14:15:43.222Z,12.37
2019-06-26T14:18:11.532Z,11.50
2019-06-26T14:20:39.898Z,11.20
2019-06-26T14:23:08.244Z,11.10
2019-06-26T14:25:37.113Z,12.83
2019-06-26T14:28:05.401Z,12.33
2019-06-26T14:30:34.574Z,11.63
2019-06-26T14:33:02.871Z,10.47
2019-06-26T14:35:31.157Z,10.87
2019-06-26T14:37:59.447Z,9.57
2019-06-26T14:40:27.731Z,10.80
2019-06-26T14:42:56.029Z,9.53
2019-06-26T14:45:24.312Z,11.20
2019-06-26T14:47:52.702Z,10.53
2019-06-26T14:50:21.117Z,11.30
2019-06-26T14:52:49.520Z,12.10
2019-06-26T14:55:17.822Z,12.60
2019-06-26T14:57:46.173Z,12.63
2019-06-26T15:00:14.457Z,13.57
2019-06-26T15:02:42.744Z,11.90
2019-06-26T15:05:11.328Z,12.10
2019-06-26T15:07:39.610Z,10.50
2019-06-26T15:10:08.339Z,11.47
2019-06-26T15:12:36.653Z,11.03
2019-06-26T15:15:05.525Z,11.10
2019-06-26T15:17:33.973Z,10.30
2019-06-26T15:20:02.408Z,11.10
2019-06-26T15:22:30.853Z,9.70
2019-06-26T15:24:59.236Z,10.43
2019-06-26T15:27:27.592Z,9.37
2019-06-26T15:29:55.953Z,8.97
2019-06-26T15:32:24.249Z,8.07
2019-06-26T15:34:52.586Z,7.17
2019-06-26T15:37:20.972Z,7.07
2019-06-26T15:39:49.253Z,6.60
2019-06-26T15:42:17.794Z,7.10
2019-06-26T15:44:46.093Z,6.13
2019-06-26T15:47:14.377Z,5.97
2019-06-26T15:49:42.760Z,5.70
2019-06-26T15:52:15.362Z,4.93
2019-06-26T15:54:41.290Z,5.30
2019-06-26T15:57:09.568Z,5.13
2019-06-26T15:59:37.951Z,4.83
2019-06-26T16:02:06.240Z,5.30
2019-06-26T16:04:35.343Z,4.87
2019-06-26T16:07:03.769Z,4.40
2019-06-26T16:09:32.082Z,4.33
2019-06-26T16:12:00.419Z,4.30
2019-06-26T16:14:28.771Z,4.10
2019-06-26T16:16:58.786Z,4.03
2019-06-26T16:19:27.062Z,3.93
2019-06-26T16:21:55.508Z,3.73
2019-06-26T16:24:23.905Z,4.20
2019-06-26T16:26:52.398Z,4.30
2019-06-26T16:29:20.753Z,4.30
2019-06-26T16:31:49.092Z,3.90
2019-06-26T16:34:17.391Z,3.80
2019-06-26T16:36:45.788Z,3.57
2019-06-26T16:39:14.156Z,4.27
2019-06-26T16:41:42.497Z,3.67
2019-06-26T16:44:10.793Z,4.40
2019-06-26T16:46:39.215Z,4.00
2019-06-26T16:49:07.605Z,4.00
2019-06-26T16:51:36.289Z,4.07
2019-06-26T16:54:04.564Z,3.67
2019-06-26T16:56:32.905Z,3.93
2019-06-26T16:59:01.276Z,4.27
2019-06-26T17:01:29.648Z,4.07
2019-06-26T17:03:57.924Z,4.20
2019-06-26T17:06:26.271Z,5.00
2019-06-26T17:08:54.578Z,4.27
2019-06-26T17:11:22.926Z,3.60
2019-06-26T17:13:51.308Z,4.40
2019-06-26T17:16:19.682Z,4.57
2019-06-26T17:18:48.067Z,5.30
2019-06-26T17:21:16.439Z,4.50
2019-06-26T17:23:44.855Z,4.50
2019-06-26T17:26:13.237Z,4.90
2019-06-26T17:28:41.632Z,4.80
2019-06-26T17:31:09.975Z,5.17
2019-06-26T17:33:38.269Z,4.03
2019-06-26T17:36:06.633Z,4.97
2019-06-26T17:38:34.917Z,5.50
2019-06-26T17:41:03.228Z,5.07
2019-06-26T17:43:31.579Z,4.47
2019-06-26T17:45:59.931Z,4.70
2019-06-26T17:48:28.239Z,4.70
2019-06-26T17:50:56.579Z,4.90
2019-06-26T17:53:24.903Z,4.53
2019-06-26T17:55:53.248Z,5.00
2019-06-26T17:58:24.489Z,4.17
2019-06-26T18:00:51.545Z,5.43
2019-06-26T18:03:19.847Z,4.70
2019-06-26T18:05:48.202Z,4.93
2019-06-26T18:08:16.484Z,4.70
2019-06-26T18:10:44.784Z,4.90
2019-06-26T18:13:13.059Z,4.50
2019-06-26T18:15:41.432Z,5.53
2019-06-26T18:18:09.789Z,4.87
2019-06-26T18:20:38.165Z,4.23
2019-06-26T18:23:07.890Z,4.50
2019-06-26T18:25:36.492Z,4.90
2019-06-26T18:28:04.770Z,4.40
2019-06-26T18:30:33.138Z,4.73
2019-06-26T18:33:01.428Z,4.47
2019-06-26T18:35:29.709Z,4.13
2019-06-26T18:37:58.014Z,4.53
2019-06-26T18:40:26.355Z,4.33
2019-06-26T18:42:54.643Z,4.00
2019-06-26T18:45:23.008Z,4.40
2019-06-26T18:47:51.412Z,4.40
2019-06-26T18:50:19.771Z,4.70
2019-06-26T18:52:48.130Z,3.67
2019-06-26T18:55:16.504Z,3.80
2019-06-26T18:57:44.799Z,4.00
2019-06-26T19:00:13.256Z,3.90
2019-06-26T19:02:41.742Z,3.13
2019-06-26T19:05:10.127Z,3.90
2019-06-26T19:07:38.475Z,3.43
2019-06-26T19:10:08.114Z,3.83
2019-06-26T19:12:36.559Z,4.00
2019-06-26T19:15:05.720Z,3.80
2019-06-26T19:17:33.994Z,3.30
2019-06-26T19:20:02.372Z,3.37
2019-06-26T19:22:30.660Z,3.40
2019-06-26T19:24:59.003Z,3.17
2019-06-26T19:27:27.373Z,3.80
2019-06-26T19:29:55.735Z,4.03
2019-06-26T19:32:24.111Z,3.60
2019-06-26T19:34:52.462Z,4.03
2019-06-26T19:37:21.016Z,4.07
2019-06-26T19:39:49.385Z,3.77
2019-06-26T19:42:17.741Z,3.83
2019-06-26T19:44:46.105Z,3.50
2019-06-26T19:47:14.410Z,3.63
2019-06-26T19:49:42.784Z,3.50
2019-06-26T19:52:11.220Z,3.40
2019-06-26T19:54:39.620Z,3.30
2019-06-26T19:57:07.957Z,3.20
2019-06-26T19:59:36.894Z,3.27
2019-06-26T20:02:05.262Z,3.80
2019-06-26T20:04:33.603Z,3.70
2019-06-26T20:07:01.901Z,4.40
2019-06-26T20:09:30.271Z,4.03
2019-06-26T20:11:58.668Z,4.50
2019-06-26T20:14:27.023Z,4.33
2019-06-26T20:16:55.405Z,4.70
2019-06-26T20:19:23.766Z,4.07
2019-06-26T20:21:52.129Z,4.07
2019-06-26T20:24:20.602Z,3.70
2019-06-26T20:26:48.895Z,4.30
2019-06-26T20:29:17.307Z,4.40
2019-06-26T20:31:45.716Z,4.27
2019-06-26T20:34:14.060Z,3.97
2019-06-26T20:36:42.450Z,3.90
2019-06-26T20:39:10.729Z,4.70
2019-06-26T20:41:39.080Z,3.90
2019-06-26T20:44:07.377Z,4.23
2019-06-26T20:46:35.665Z,3.80
2019-06-26T20:49:04.031Z,4.07
2019-06-26T20:51:32.310Z,4.70
2019-06-26T20:54:00.599Z,5.00
2019-06-26T20:56:29.002Z,4.73
2019-06-26T20:58:57.352Z,4.60
2019-06-26T21:01:25.699Z,4.77
2019-06-26T21:03:53.997Z,3.90
2019-06-26T21:06:22.329Z,4.97
2019-06-26T21:08:50.652Z,4.60
2019-06-26T21:11:18.928Z,4.47
2019-06-26T21:13:47.205Z,5.20
2019-06-26T21:16:15.578Z,4.90
2019-06-26T21:18:43.935Z,4.40
2019-06-26T21:21:12.313Z,4.70
2019-06-26T21:23:40.662Z,5.20
2019-06-26T21:26:09.033Z,4.70
2019-06-26T21:28:37.314Z,5.40
2019-06-26T21:31:05.599Z,4.77
2019-06-26T21:33:34.064Z,6.13
2019-06-26T21:36:02.428Z,5.37
2019-06-26T21:38:30.727Z,5.57
2019-06-26T21:40:59.007Z,5.67
2019-06-26T21:43:27.298Z,5.03
2019-06-26T21:45:55.584Z,4.90
2019-06-26T21:48:23.956Z,5.10
2019-06-26T21:50:52.304Z,4.90
2019-06-26T21:53:20.630Z,5.00
2019-06-26T21:55:49.054Z,4.73
2019-06-26T21:58:17.365Z,5.73
2019-06-26T22:00:45.798Z,5.20
2019-06-26T22:03:14.421Z,4.53
2019-06-26T22:05:42.801Z,5.37
2019-06-26T22:08:11.168Z,4.77
2019-06-26T22:10:39.547Z,5.43
2019-06-26T22:13:07.897Z,5.10
2019-06-26T22:15:36.210Z,5.20
2019-06-26T22:18:04.581Z,4.40
2019-06-26T22:20:32.962Z,4.70
2019-06-26T22:23:01.277Z,4.60
2019-06-26T22:25:29.624Z,4.43
2019-06-26T22:27:58.019Z,6.27
2019-06-26T22:30:26.401Z,5.33
2019-06-26T22:32:54.782Z,4.67
2019-06-26T22:35:23.142Z,5.00
2019-06-26T22:37:51.535Z,5.07
2019-06-26T22:40:19.887Z,5.90
2019-06-26T22:42:48.202Z,5.40
2019-06-26T22:45:16.477Z,4.57
2019-06-26T22:47:44.836Z,5.73
2019-06-26T22:50:13.203Z,6.70
2019-06-26T22:52:41.479Z,5.60
2019-06-26T22:55:09.783Z,5.60
2019-06-26T22:57:38.135Z,5.30
2019-06-26T23:00:08.347Z,5.27
2019-06-26T23:02:36.689Z,4.80
2019-06-26T23:05:06.185Z,5.60
2019-06-26T23:07:34.533Z,5.83
2019-06-26T23:10:02.995Z,5.80
2019-06-26T23:12:31.361Z,5.77
2019-06-26T23:14:59.650Z,5.30
2019-06-26T23:17:28.035Z,5.90
2019-06-26T23:19:56.394Z,5.43
2019-06-26T23:22:24.770Z,5.30
2019-06-26T23:24:53.126Z,5.47
2019-06-26T23:27:21.442Z,5.20
2019-06-26T23:29:49.791Z,5.43
2019-06-26T23:32:18.164Z,5.10
2019-06-26T23:34:46.446Z,5.50
2019-06-26T23:37:14.746Z,5.57
2019-06-26T23:39:43.040Z,5.23
2019-06-26T23:42:11.354Z,5.47
2019-06-26T23:44:39.630Z,5.30
2019-06-26T23:47:07.914Z,6.00
2019-06-26T23:49:36.295Z,5.37
2019-06-26T23:52:04.644Z,6.47
2019-06-26T23:54:32.947Z,5.27
2019-06-26T23:57:01.226Z,6.13
2019-06-26T23:59:29.556Z,6.07
